sensor_id;sensor_type;location;lat;lon;timestamp;pressure;altitude;pressure_sealevel;temperature;humidity
34586;BME280;20816;50.950;11.108;2022-07-06T00:01:30;98948.00;;;16.74;71.40
34586;BME280;20816;50.950;11.108;2022-07-06T00:03:57;98943.38;;;16.79;71.27
34586;BME280;20816;50.950;11.108;2022-07-06T00:06:24;98944.16;;;16.81;70.91
34586;BME280;20816;50.950;11.108;2022-07-06T00:08:50;98943.31;;;16.80;71.70
34586;BME280;20816;50.950;11.108;2022-07-06T00:11:17;98951.50;;;16.74;72.18
34586;BME280;20816;50.950;11.108;2022-07-06T00:13:44;98952.38;;;16.75;72.50
34586;BME280;20816;50.950;11.108;2022-07-06T00:16:10;98950.50;;;16.77;71.25
34586;BME280;20816;50.950;11.108;2022-07-06T00:18:37;98956.03;;;16.72;72.00
34586;BME280;20816;50.950;11.108;2022-07-06T00:21:03;98950.72;;;16.72;72.74
34586;BME280;20816;50.950;11.108;2022-07-06T00:23:30;98960.69;;;16.66;71.85
34586;BME280;20816;50.950;11.108;2022-07-06T00:25:57;98956.31;;;16.65;72.43
34586;BME280;20816;50.950;11.108;2022-07-06T00:28:24;98956.00;;;16.50;73.18
34586;BME280;20816;50.950;11.108;2022-07-06T00:30:52;98949.47;;;16.37;74.17
34586;BME280;20816;50.950;11.108;2022-07-06T00:33:19;98957.19;;;16.20;74.53
34586;BME280;20816;50.950;11.108;2022-07-06T00:35:45;98955.66;;;16.14;75.13
34586;BME280;20816;50.950;11.108;2022-07-06T00:38:12;98955.72;;;16.13;75.11
34586;BME280;20816;50.950;11.108;2022-07-06T00:40:39;98959.28;;;16.12;75.39
34586;BME280;20816;50.950;11.108;2022-07-06T00:43:05;98954.97;;;16.09;75.38
34586;BME280;20816;50.950;11.108;2022-07-06T00:45:32;98952.50;;;16.05;75.58
34586;BME280;20816;50.950;11.108;2022-07-06T00:47:59;98941.28;;;15.98;75.97
34586;BME280;20816;50.950;11.108;2022-07-06T00:50:26;98946.81;;;15.92;76.02
34586;BME280;20816;50.950;11.108;2022-07-06T00:52:56;98957.31;;;15.70;76.93
34586;BME280;20816;50.950;11.108;2022-07-06T00:55:25;98948.41;;;15.48;78.24
34586;BME280;20816;50.950;11.108;2022-07-06T00:57:53;98951.28;;;15.41;79.09
34586;BME280;20816;50.950;11.108;2022-07-06T01:00:22;98953.16;;;15.38;78.29
34586;BME280;20816;50.950;11.108;2022-07-06T01:02:49;98962.25;;;15.31;78.81
34586;BME280;20816;50.950;11.108;2022-07-06T01:05:17;98954.28;;;15.31;79.38
34586;BME280;20816;50.950;11.108;2022-07-06T01:07:47;98955.41;;;15.25;79.57
34586;BME280;20816;50.950;11.108;2022-07-06T01:10:15;98960.78;;;15.22;79.50
34586;BME280;20816;50.950;11.108;2022-07-06T01:12:44;98956.31;;;15.24;79.22
34586;BME280;20816;50.950;11.108;2022-07-06T01:15:15;98959.22;;;15.17;79.48
34586;BME280;20816;50.950;11.108;2022-07-06T01:17:43;98964.34;;;15.21;79.29
34586;BME280;20816;50.950;11.108;2022-07-06T01:20:21;98958.31;;;15.18;79.70
34586;BME280;20816;50.950;11.108;2022-07-06T01:22:50;98958.50;;;15.11;80.07
34586;BME280;20816;50.950;11.108;2022-07-06T01:25:18;98957.66;;;15.11;80.21
34586;BME280;20816;50.950;11.108;2022-07-06T01:27:45;98969.97;;;15.12;80.48
34586;BME280;20816;50.950;11.108;2022-07-06T01:30:15;98959.28;;;15.15;80.18
34586;BME280;20816;50.950;11.108;2022-07-06T01:32:43;98956.78;;;15.10;79.91
34586;BME280;20816;50.950;11.108;2022-07-06T01:35:12;98970.88;;;15.11;79.74
34586;BME280;20816;50.950;11.108;2022-07-06T01:37:40;98962.41;;;15.01;80.47
34586;BME280;20816;50.950;11.108;2022-07-06T01:40:09;98963.47;;;14.96;81.32
34586;BME280;20816;50.950;11.108;2022-07-06T01:42:36;98966.03;;;14.97;81.50
34586;BME280;20816;50.950;11.108;2022-07-06T01:45:04;98965.34;;;14.92;81.70
34586;BME280;20816;50.950;11.108;2022-07-06T01:47:31;98965.41;;;14.91;82.75
34586;BME280;20816;50.950;11.108;2022-07-06T01:50:00;98963.47;;;14.96;82.25
34586;BME280;20816;50.950;11.108;2022-07-06T01:52:27;98968.66;;;14.99;81.85
34586;BME280;20816;50.950;11.108;2022-07-06T01:54:57;98963.66;;;14.90;82.22
34586;BME280;20816;50.950;11.108;2022-07-06T01:57:24;98966.16;;;14.94;82.16
34586;BME280;20816;50.950;11.108;2022-07-06T01:59:50;98968.88;;;14.93;82.61
34586;BME280;20816;50.950;11.108;2022-07-06T02:02:17;98977.81;;;14.89;83.17
34586;BME280;20816;50.950;11.108;2022-07-06T02:04:44;98977.66;;;14.93;83.17
34586;BME280;20816;50.950;11.108;2022-07-06T02:07:10;98975.09;;;14.92;82.59
34586;BME280;20816;50.950;11.108;2022-07-06T02:09:37;98975.09;;;14.90;82.92
34586;BME280;20816;50.950;11.108;2022-07-06T02:12:04;98960.31;;;14.84;84.03
34586;BME280;20816;50.950;11.108;2022-07-06T02:14:31;98964.56;;;14.89;83.53
34586;BME280;20816;50.950;11.108;2022-07-06T02:16:57;98970.97;;;14.81;84.28
34586;BME280;20816;50.950;11.108;2022-07-06T02:19:24;98972.88;;;14.78;84.58
34586;BME280;20816;50.950;11.108;2022-07-06T02:21:50;98974.97;;;14.68;84.51
34586;BME280;20816;50.950;11.108;2022-07-06T02:24:17;98979.78;;;14.55;85.22
34586;BME280;20816;50.950;11.108;2022-07-06T02:26:44;98976.91;;;14.34;86.62
34586;BME280;20816;50.950;11.108;2022-07-06T02:29:10;98971.66;;;14.32;86.35
34586;BME280;20816;50.950;11.108;2022-07-06T02:31:37;98969.00;;;14.32;86.33
34586;BME280;20816;50.950;11.108;2022-07-06T02:34:03;98974.28;;;14.34;85.25
34586;BME280;20816;50.950;11.108;2022-07-06T02:36:30;98968.72;;;14.41;85.53
34586;BME280;20816;50.950;11.108;2022-07-06T02:38:57;98976.75;;;14.38;85.31
34586;BME280;20816;50.950;11.108;2022-07-06T02:41:23;98980.50;;;14.31;86.06
34586;BME280;20816;50.950;11.108;2022-07-06T02:43:50;98974.75;;;14.18;86.73
34586;BME280;20816;50.950;11.108;2022-07-06T02:46:17;98974.91;;;14.12;86.99
34586;BME280;20816;50.950;11.108;2022-07-06T02:48:43;98983.66;;;14.14;86.57
34586;BME280;20816;50.950;11.108;2022-07-06T02:51:10;98989.06;;;14.11;87.46
34586;BME280;20816;50.950;11.108;2022-07-06T02:53:37;98982.22;;;14.04;88.32
34586;BME280;20816;50.950;11.108;2022-07-06T02:56:03;98985.59;;;14.09;88.63
34586;BME280;20816;50.950;11.108;2022-07-06T02:58:30;98977.47;;;14.15;87.91
34586;BME280;20816;50.950;11.108;2022-07-06T03:00:57;98980.31;;;14.09;87.79
34586;BME280;20816;50.950;11.108;2022-07-06T03:03:23;98978.75;;;14.02;88.25
34586;BME280;20816;50.950;11.108;2022-07-06T03:05:50;98985.81;;;14.01;88.55
34586;BME280;20816;50.950;11.108;2022-07-06T03:08:17;98984.22;;;13.96;89.38
34586;BME280;20816;50.950;11.108;2022-07-06T03:10:43;98987.78;;;13.95;89.59
34586;BME280;20816;50.950;11.108;2022-07-06T03:13:10;98990.50;;;13.92;90.07
34586;BME280;20816;50.950;11.108;2022-07-06T03:15:37;99002.81;;;13.93;89.83
34586;BME280;20816;50.950;11.108;2022-07-06T03:18:03;98996.63;;;13.94;89.37
34586;BME280;20816;50.950;11.108;2022-07-06T03:20:30;98996.75;;;13.89;89.41
34586;BME280;20816;50.950;11.108;2022-07-06T03:22:57;99000.63;;;13.76;90.11
34586;BME280;20816;50.950;11.108;2022-07-06T03:25:24;99004.59;;;13.61;91.67
34586;BME280;20816;50.950;11.108;2022-07-06T03:27:50;99011.75;;;13.56;92.00
34586;BME280;20816;50.950;11.108;2022-07-06T03:30:17;99010.13;;;13.52;91.89
34586;BME280;20816;50.950;11.108;2022-07-06T03:32:44;99000.44;;;13.51;92.52
34586;BME280;20816;50.950;11.108;2022-07-06T03:35:10;99008.31;;;13.54;92.25
34586;BME280;20816;50.950;11.108;2022-07-06T03:37:37;99016.94;;;13.59;92.91
34586;BME280;20816;50.950;11.108;2022-07-06T03:40:04;99009.63;;;13.70;92.20
34586;BME280;20816;50.950;11.108;2022-07-06T03:42:30;99005.97;;;13.74;91.13
34586;BME280;20816;50.950;11.108;2022-07-06T03:44:57;99021.03;;;13.71;91.42
34586;BME280;20816;50.950;11.108;2022-07-06T03:47:24;99002.63;;;13.68;92.21
34586;BME280;20816;50.950;11.108;2022-07-06T03:49:50;99007.19;;;13.63;92.25
34586;BME280;20816;50.950;11.108;2022-07-06T03:52:17;99024.66;;;13.68;92.88
34586;BME280;20816;50.950;11.108;2022-07-06T03:54:44;99012.97;;;13.77;92.27
34586;BME280;20816;50.950;11.108;2022-07-06T03:57:10;99011.09;;;13.81;92.27
34586;BME280;20816;50.950;11.108;2022-07-06T03:59:39;99007.47;;;13.85;91.77
34586;BME280;20816;50.950;11.108;2022-07-06T04:02:06;99014.38;;;13.89;92.50
34586;BME280;20816;50.950;11.108;2022-07-06T04:04:34;99010.66;;;13.96;91.91
34586;BME280;20816;50.950;11.108;2022-07-06T04:07:00;99004.22;;;14.05;91.31
34586;BME280;20816;50.950;11.108;2022-07-06T04:09:27;99010.19;;;14.11;91.32
34586;BME280;20816;50.950;11.108;2022-07-06T04:11:54;99021.50;;;14.16;91.84
34586;BME280;20816;50.950;11.108;2022-07-06T04:14:20;99014.19;;;14.26;92.06
34586;BME280;20816;50.950;11.108;2022-07-06T04:16:47;99021.78;;;14.37;91.87
34586;BME280;20816;50.950;11.108;2022-07-06T04:19:14;99022.47;;;14.43;92.46
34586;BME280;20816;50.950;11.108;2022-07-06T04:21:40;99021.41;;;14.49;91.03
34586;BME280;20816;50.950;11.108;2022-07-06T04:24:07;99014.47;;;14.45;91.13
34586;BME280;20816;50.950;11.108;2022-07-06T04:26:34;99020.59;;;14.47;91.54
34586;BME280;20816;50.950;11.108;2022-07-06T04:29:01;99026.44;;;14.58;92.32
34586;BME280;20816;50.950;11.108;2022-07-06T04:31:28;99019.84;;;14.71;92.24
34586;BME280;20816;50.950;11.108;2022-07-06T04:33:54;99018.44;;;14.88;90.83
34586;BME280;20816;50.950;11.108;2022-07-06T04:36:21;99029.69;;;14.94;91.00
34586;BME280;20816;50.950;11.108;2022-07-06T04:38:48;99032.19;;;14.99;91.77
34586;BME280;20816;50.950;11.108;2022-07-06T04:41:14;99030.06;;;15.10;91.75
34586;BME280;20816;50.950;11.108;2022-07-06T04:43:41;99027.81;;;15.24;91.02
34586;BME280;20816;50.950;11.108;2022-07-06T04:46:08;99041.75;;;15.29;91.01
34586;BME280;20816;50.950;11.108;2022-07-06T04:48:35;99032.81;;;15.33;90.77
34586;BME280;20816;50.950;11.108;2022-07-06T04:51:05;99041.50;;;15.37;91.04
34586;BME280;20816;50.950;11.108;2022-07-06T04:53:32;99039.50;;;15.43;90.81
34586;BME280;20816;50.950;11.108;2022-07-06T04:55:59;99034.69;;;15.55;90.28
34586;BME280;20816;50.950;11.108;2022-07-06T04:58:25;99036.84;;;15.70;89.58
34586;BME280;20816;50.950;11.108;2022-07-06T05:00:52;99043.31;;;15.86;88.97
34586;BME280;20816;50.950;11.108;2022-07-06T05:03:20;99037.59;;;15.98;89.35
34586;BME280;20816;50.950;11.108;2022-07-06T05:05:47;99040.59;;;16.13;88.73
34586;BME280;20816;50.950;11.108;2022-07-06T05:08:14;99042.41;;;16.34;88.21
34586;BME280;20816;50.950;11.108;2022-07-06T05:10:41;99033.75;;;16.52;87.23
34586;BME280;20816;50.950;11.108;2022-07-06T05:13:07;99035.00;;;16.66;85.20
34586;BME280;20816;50.950;11.108;2022-07-06T05:15:34;99040.38;;;16.88;84.11
34586;BME280;20816;50.950;11.108;2022-07-06T05:18:01;99041.34;;;17.07;82.42
34586;BME280;20816;50.950;11.108;2022-07-06T05:20:28;99047.03;;;17.20;82.06
34586;BME280;20816;50.950;11.108;2022-07-06T05:22:54;99046.63;;;17.29;81.84
34586;BME280;20816;50.950;11.108;2022-07-06T05:25:21;99052.13;;;17.24;80.88
34586;BME280;20816;50.950;11.108;2022-07-06T05:27:47;99045.84;;;17.27;81.35
34586;BME280;20816;50.950;11.108;2022-07-06T05:30:14;99050.25;;;17.26;80.29
34586;BME280;20816;50.950;11.108;2022-07-06T05:32:41;99048.22;;;17.33;79.50
34586;BME280;20816;50.950;11.108;2022-07-06T05:35:08;99047.97;;;17.39;79.44
34586;BME280;20816;50.950;11.108;2022-07-06T05:37:55;99049.19;;;17.52;79.11
34586;BME280;20816;50.950;11.108;2022-07-06T05:40:22;99048.38;;;17.50;78.65
34586;BME280;20816;50.950;11.108;2022-07-06T05:42:48;99047.84;;;17.62;79.39
34586;BME280;20816;50.950;11.108;2022-07-06T05:45:15;99055.53;;;17.70;78.83
34586;BME280;20816;50.950;11.108;2022-07-06T05:47:42;99048.28;;;17.74;79.23
34586;BME280;20816;50.950;11.108;2022-07-06T05:50:27;99055.72;;;17.86;78.89
34586;BME280;20816;50.950;11.108;2022-07-06T05:53:02;99056.00;;;18.00;77.70
34586;BME280;20816;50.950;11.108;2022-07-06T05:55:40;99057.41;;;18.07;78.39
34586;BME280;20816;50.950;11.108;2022-07-06T05:58:07;99054.06;;;18.23;77.86
34586;BME280;20816;50.950;11.108;2022-07-06T06:00:34;99055.28;;;18.15;77.39
34586;BME280;20816;50.950;11.108;2022-07-06T06:03:01;99057.97;;;17.95;78.62
34586;BME280;20816;50.950;11.108;2022-07-06T06:05:27;99055.69;;;18.06;77.91
34586;BME280;20816;50.950;11.108;2022-07-06T06:07:54;99059.56;;;17.99;78.19
34586;BME280;20816;50.950;11.108;2022-07-06T06:10:21;99065.03;;;17.96;77.66
34586;BME280;20816;50.950;11.108;2022-07-06T06:12:49;99062.53;;;18.12;78.23
34586;BME280;20816;50.950;11.108;2022-07-06T06:15:16;99067.34;;;18.62;75.60
34586;BME280;20816;50.950;11.108;2022-07-06T06:17:43;99061.88;;;19.20;73.97
34586;BME280;20816;50.950;11.108;2022-07-06T06:20:12;99067.25;;;19.54;72.46
34586;BME280;20816;50.950;11.108;2022-07-06T06:22:49;99079.31;;;19.63;71.53
34586;BME280;20816;50.950;11.108;2022-07-06T06:25:27;99067.03;;;20.44;69.23
34586;BME280;20816;50.950;11.108;2022-07-06T06:27:54;99067.81;;;21.09;68.01
34586;BME280;20816;50.950;11.108;2022-07-06T06:30:21;99065.97;;;21.27;68.09
34586;BME280;20816;50.950;11.108;2022-07-06T06:32:48;99072.16;;;20.96;67.71
34586;BME280;20816;50.950;11.108;2022-07-06T06:35:15;99071.97;;;20.67;68.86
34586;BME280;20816;50.950;11.108;2022-07-06T06:37:41;99072.97;;;21.60;66.37
34586;BME280;20816;50.950;11.108;2022-07-06T06:40:08;99070.03;;;22.08;64.65
34586;BME280;20816;50.950;11.108;2022-07-06T06:42:36;99071.50;;;21.98;64.78
34586;BME280;20816;50.950;11.108;2022-07-06T06:45:05;99076.06;;;22.26;64.95
34586;BME280;20816;50.950;11.108;2022-07-06T06:47:32;99075.13;;;21.83;64.81
34586;BME280;20816;50.950;11.108;2022-07-06T06:49:58;99081.38;;;21.38;65.91
34586;BME280;20816;50.950;11.108;2022-07-06T06:52:25;99073.84;;;21.44;65.60
34586;BME280;20816;50.950;11.108;2022-07-06T06:55:07;99076.88;;;21.22;67.61
34586;BME280;20816;50.950;11.108;2022-07-06T06:57:34;99074.22;;;20.75;68.42
34586;BME280;20816;50.950;11.108;2022-07-06T07:00:02;99076.13;;;21.36;67.10
34586;BME280;20816;50.950;11.108;2022-07-06T07:02:29;99076.16;;;22.39;64.48
34586;BME280;20816;50.950;11.108;2022-07-06T07:04:56;99080.91;;;22.62;63.33
34586;BME280;20816;50.950;11.108;2022-07-06T07:07:22;99078.88;;;22.80;62.11
34586;BME280;20816;50.950;11.108;2022-07-06T07:09:49;99079.03;;;22.64;62.79
34586;BME280;20816;50.950;11.108;2022-07-06T07:12:15;99082.28;;;21.97;64.91
34586;BME280;20816;50.950;11.108;2022-07-06T07:14:44;99079.75;;;21.35;67.14
34586;BME280;20816;50.950;11.108;2022-07-06T07:17:11;99082.81;;;20.49;69.70
34586;BME280;20816;50.950;11.108;2022-07-06T07:19:38;99087.75;;;20.06;71.16
34586;BME280;20816;50.950;11.108;2022-07-06T07:22:04;99094.09;;;19.86;72.18
34586;BME280;20816;50.950;11.108;2022-07-06T07:24:31;99094.91;;;19.71;73.02
34586;BME280;20816;50.950;11.108;2022-07-06T07:26:58;99091.56;;;19.31;74.33
34586;BME280;20816;50.950;11.108;2022-07-06T07:29:25;99092.25;;;19.35;74.73
34586;BME280;20816;50.950;11.108;2022-07-06T07:31:51;99080.84;;;20.68;71.22
34586;BME280;20816;50.950;11.108;2022-07-06T07:34:19;99089.53;;;20.56;69.95
34586;BME280;20816;50.950;11.108;2022-07-06T07:36:45;99087.25;;;21.29;68.05
34586;BME280;20816;50.950;11.108;2022-07-06T07:39:12;99087.34;;;21.87;66.69
34586;BME280;20816;50.950;11.108;2022-07-06T07:41:39;99084.75;;;22.73;63.32
34586;BME280;20816;50.950;11.108;2022-07-06T07:44:05;99089.44;;;22.55;63.36
34586;BME280;20816;50.950;11.108;2022-07-06T07:46:32;99085.09;;;23.09;62.61
34586;BME280;20816;50.950;11.108;2022-07-06T07:48:59;99089.34;;;22.99;62.58
34586;BME280;20816;50.950;11.108;2022-07-06T07:51:25;99099.66;;;23.59;61.49
34586;BME280;20816;50.950;11.108;2022-07-06T07:53:52;99092.38;;;23.61;60.19
34586;BME280;20816;50.950;11.108;2022-07-06T07:56:18;99083.38;;;22.80;62.47
34586;BME280;20816;50.950;11.108;2022-07-06T07:58:45;99090.19;;;21.70;65.15
34586;BME280;20816;50.950;11.108;2022-07-06T08:01:12;99088.72;;;21.94;65.20
34586;BME280;20816;50.950;11.108;2022-07-06T08:03:38;99087.63;;;22.13;64.74
34586;BME280;20816;50.950;11.108;2022-07-06T08:06:05;99091.16;;;22.70;63.49
34586;BME280;20816;50.950;11.108;2022-07-06T08:08:32;99083.53;;;22.35;63.53
34586;BME280;20816;50.950;11.108;2022-07-06T08:11:01;99087.22;;;21.74;64.19
34586;BME280;20816;50.950;11.108;2022-07-06T08:13:46;99084.38;;;22.07;64.66
34586;BME280;20816;50.950;11.108;2022-07-06T08:16:12;99092.31;;;21.79;64.85
34586;BME280;20816;50.950;11.108;2022-07-06T08:18:42;99087.00;;;21.93;63.98
34586;BME280;20816;50.950;11.108;2022-07-06T08:21:09;99077.91;;;22.40;61.97
34586;BME280;20816;50.950;11.108;2022-07-06T08:23:53;99075.44;;;23.07;60.86
34586;BME280;20816;50.950;11.108;2022-07-06T08:26:21;99082.16;;;21.70;63.40
34586;BME280;20816;50.950;11.108;2022-07-06T08:28:47;99078.50;;;21.25;64.19
34586;BME280;20816;50.950;11.108;2022-07-06T08:31:14;99092.31;;;21.33;64.34
34586;BME280;20816;50.950;11.108;2022-07-06T08:34:02;99091.09;;;20.76;65.34
34586;BME280;20816;50.950;11.108;2022-07-06T08:36:29;99088.63;;;20.88;66.23
34586;BME280;20816;50.950;11.108;2022-07-06T08:38:56;99086.97;;;21.17;63.93
34586;BME280;20816;50.950;11.108;2022-07-06T08:41:23;99085.31;;;22.92;59.43
34586;BME280;20816;50.950;11.108;2022-07-06T08:43:52;99082.72;;;24.11;56.67
34586;BME280;20816;50.950;11.108;2022-07-06T08:46:20;99085.03;;;23.50;57.09
34586;BME280;20816;50.950;11.108;2022-07-06T08:48:47;99085.63;;;22.45;59.04
34586;BME280;20816;50.950;11.108;2022-07-06T08:51:14;99094.41;;;21.28;61.04
34586;BME280;20816;50.950;11.108;2022-07-06T08:53:44;99093.19;;;21.18;61.87
34586;BME280;20816;50.950;11.108;2022-07-06T08:56:12;99090.31;;;22.27;58.92
34586;BME280;20816;50.950;11.108;2022-07-06T08:58:39;99094.69;;;23.53;56.75
34586;BME280;20816;50.950;11.108;2022-07-06T09:01:11;99090.28;;;23.52;55.22
34586;BME280;20816;50.950;11.108;2022-07-06T09:03:41;99085.75;;;24.45;53.50
34586;BME280;20816;50.950;11.108;2022-07-06T09:06:10;99089.47;;;24.68;52.54
34586;BME280;20816;50.950;11.108;2022-07-06T09:08:37;99075.38;;;25.85;49.57
34586;BME280;20816;50.950;11.108;2022-07-06T09:11:04;99077.09;;;25.62;50.97
34586;BME280;20816;50.950;11.108;2022-07-06T09:13:31;99071.53;;;25.41;50.31
34586;BME280;20816;50.950;11.108;2022-07-06T09:16:15;99070.50;;;25.90;50.16
34586;BME280;20816;50.950;11.108;2022-07-06T09:19:02;99070.94;;;25.25;50.73
34586;BME280;20816;50.950;11.108;2022-07-06T09:21:32;99076.16;;;24.28;53.14
34586;BME280;20816;50.950;11.108;2022-07-06T09:24:00;99090.44;;;23.09;56.13
34586;BME280;20816;50.950;11.108;2022-07-06T09:26:29;99090.88;;;22.46;57.38
34586;BME280;20816;50.950;11.108;2022-07-06T09:28:57;99087.50;;;22.00;58.20
34586;BME280;20816;50.950;11.108;2022-07-06T09:31:24;99087.91;;;22.08;58.27
34586;BME280;20816;50.950;11.108;2022-07-06T09:39:19;99091.84;;;22.31;56.97
34586;BME280;20816;50.950;11.108;2022-07-06T09:41:50;99090.91;;;23.43;53.91
34586;BME280;20816;50.950;11.108;2022-07-06T09:44:38;99089.81;;;23.33;53.00
34586;BME280;20816;50.950;11.108;2022-07-06T09:47:07;99090.78;;;23.32;52.19
34586;BME280;20816;50.950;11.108;2022-07-06T09:49:36;99079.19;;;24.36;49.69
34586;BME280;20816;50.950;11.108;2022-07-06T09:52:08;99073.47;;;26.21;48.29
34586;BME280;20816;50.950;11.108;2022-07-06T09:54:37;99074.53;;;25.61;49.11
34586;BME280;20816;50.950;11.108;2022-07-06T09:57:07;99071.22;;;24.47;49.56
34586;BME280;20816;50.950;11.108;2022-07-06T09:59:36;99082.41;;;23.36;52.00
34586;BME280;20816;50.950;11.108;2022-07-06T10:02:05;99081.53;;;23.09;52.23
34586;BME280;20816;50.950;11.108;2022-07-06T10:04:33;99079.22;;;22.47;54.14
34586;BME280;20816;50.950;11.108;2022-07-06T10:07:00;99077.50;;;22.89;53.11
34586;BME280;20816;50.950;11.108;2022-07-06T10:09:29;99072.56;;;23.76;52.18
34586;BME280;20816;50.950;11.108;2022-07-06T10:12:00;99057.84;;;24.71;51.20
34586;BME280;20816;50.950;11.108;2022-07-06T10:14:30;99066.59;;;24.24;52.06
34586;BME280;20816;50.950;11.108;2022-07-06T10:16:58;99065.59;;;25.12;51.03
34586;BME280;20816;50.950;11.108;2022-07-06T10:19:27;99066.72;;;25.69;48.40
34586;BME280;20816;50.950;11.108;2022-07-06T10:21:56;99064.88;;;25.34;49.57
34586;BME280;20816;50.950;11.108;2022-07-06T10:24:25;99070.28;;;24.36;49.27
34586;BME280;20816;50.950;11.108;2022-07-06T10:26:54;99070.84;;;23.75;51.07
34586;BME280;20816;50.950;11.108;2022-07-06T10:29:21;99068.22;;;22.52;53.27
34586;BME280;20816;50.950;11.108;2022-07-06T10:31:48;99074.50;;;23.47;52.70
34586;BME280;20816;50.950;11.108;2022-07-06T10:34:17;99058.38;;;24.76;50.43
34586;BME280;20816;50.950;11.108;2022-07-06T10:36:48;99061.03;;;26.42;47.98
34586;BME280;20816;50.950;11.108;2022-07-06T10:39:15;99056.31;;;25.40;46.38
34586;BME280;20816;50.950;11.108;2022-07-06T10:42:00;99060.78;;;24.17;48.00
34586;BME280;20816;50.950;11.108;2022-07-06T10:44:27;99056.84;;;25.22;47.66
34586;BME280;20816;50.950;11.108;2022-07-06T10:46:55;99048.53;;;26.52;45.94
34586;BME280;20816;50.950;11.108;2022-07-06T10:49:24;99053.97;;;27.18;44.79
34586;BME280;20816;50.950;11.108;2022-07-06T10:52:11;99048.00;;;27.47;42.85
34586;BME280;20816;50.950;11.108;2022-07-06T10:54:42;99050.63;;;25.80;45.14
34586;BME280;20816;50.950;11.108;2022-07-06T10:57:10;99054.75;;;25.01;47.15
34586;BME280;20816;50.950;11.108;2022-07-06T10:59:37;99066.69;;;23.57;48.82
34586;BME280;20816;50.950;11.108;2022-07-06T11:02:16;99054.66;;;24.15;47.99
34586;BME280;20816;50.950;11.108;2022-07-06T11:04:47;99055.47;;;23.65;49.50
34586;BME280;20816;50.950;11.108;2022-07-06T11:07:16;99050.69;;;24.08;48.68
34586;BME280;20816;50.950;11.108;2022-07-06T11:09:59;99060.03;;;24.41;46.86
34586;BME280;20816;50.950;11.108;2022-07-06T11:12:26;99050.25;;;25.50;45.30
34586;BME280;20816;50.950;11.108;2022-07-06T11:14:53;99049.63;;;26.39;43.25
34586;BME280;20816;50.950;11.108;2022-07-06T11:17:20;99041.25;;;26.19;44.41
34586;BME280;20816;50.950;11.108;2022-07-06T11:19:58;99042.31;;;25.83;45.03
34586;BME280;20816;50.950;11.108;2022-07-06T11:22:38;99040.22;;;25.52;45.55
34586;BME280;20816;50.950;11.108;2022-07-06T11:25:06;99048.75;;;25.46;45.30
34586;BME280;20816;50.950;11.108;2022-07-06T11:27:34;99047.34;;;24.68;46.73
34586;BME280;20816;50.950;11.108;2022-07-06T11:30:01;99042.00;;;25.16;45.06
34586;BME280;20816;50.950;11.108;2022-07-06T11:32:28;99048.06;;;25.55;44.82
34586;BME280;20816;50.950;11.108;2022-07-06T11:34:55;99049.16;;;25.04;45.88
34586;BME280;20816;50.950;11.108;2022-07-06T11:37:22;99051.63;;;23.94;48.11
34586;BME280;20816;50.950;11.108;2022-07-06T11:39:49;99056.25;;;23.40;49.69
34586;BME280;20816;50.950;11.108;2022-07-06T11:42:17;99050.53;;;23.32;49.50
34586;BME280;20816;50.950;11.108;2022-07-06T11:44:45;99049.63;;;23.58;49.03
34586;BME280;20816;50.950;11.108;2022-07-06T11:47:12;99039.94;;;23.95;48.02
34586;BME280;20816;50.950;11.108;2022-07-06T11:49:49;99044.97;;;24.00;48.62
34586;BME280;20816;50.950;11.108;2022-07-06T11:52:16;99055.84;;;23.46;49.50
34586;BME280;20816;50.950;11.108;2022-07-06T11:54:43;99051.19;;;23.62;48.25
34586;BME280;20816;50.950;11.108;2022-07-06T11:57:13;99046.59;;;25.03;46.74
34586;BME280;20816;50.950;11.108;2022-07-06T11:59:40;99033.34;;;26.51;44.33
34586;BME280;20816;50.950;11.108;2022-07-06T12:02:09;99031.59;;;27.59;42.55
34586;BME280;20816;50.950;11.108;2022-07-06T12:04:39;99031.94;;;27.45;42.44
34586;BME280;20816;50.950;11.108;2022-07-06T12:07:11;99031.34;;;26.76;42.85
34586;BME280;20816;50.950;11.108;2022-07-06T12:09:39;99040.34;;;25.50;44.63
34586;BME280;20816;50.950;11.108;2022-07-06T12:12:08;99030.66;;;25.48;44.51
34586;BME280;20816;50.950;11.108;2022-07-06T12:14:36;99024.66;;;25.44;45.28
34586;BME280;20816;50.950;11.108;2022-07-06T12:17:05;99019.06;;;25.82;44.73
34586;BME280;20816;50.950;11.108;2022-07-06T12:19:34;99021.31;;;26.33;43.70
34586;BME280;20816;50.950;11.108;2022-07-06T12:22:01;99022.16;;;26.00;43.63
34586;BME280;20816;50.950;11.108;2022-07-06T12:24:30;99018.81;;;25.85;44.59
34586;BME280;20816;50.950;11.108;2022-07-06T12:26:58;99018.47;;;26.01;43.61
34586;BME280;20816;50.950;11.108;2022-07-06T12:29:35;99018.72;;;25.63;44.63
34586;BME280;20816;50.950;11.108;2022-07-06T12:32:02;99017.97;;;25.50;44.34
34586;BME280;20816;50.950;11.108;2022-07-06T12:34:29;99020.78;;;26.06;44.26
34586;BME280;20816;50.950;11.108;2022-07-06T12:37:07;99012.13;;;26.24;42.79
34586;BME280;20816;50.950;11.108;2022-07-06T12:39:43;99019.56;;;26.21;42.94
34586;BME280;20816;50.950;11.108;2022-07-06T12:42:10;99001.41;;;25.89;43.29
34586;BME280;20816;50.950;11.108;2022-07-06T12:44:46;99008.91;;;26.31;42.35
34586;BME280;20816;50.950;11.108;2022-07-06T12:47:17;99009.06;;;25.25;42.89
34586;BME280;20816;50.950;11.108;2022-07-06T12:49:44;99012.28;;;24.57;44.13
34586;BME280;20816;50.950;11.108;2022-07-06T12:52:13;99008.00;;;24.42;44.12
34586;BME280;20816;50.950;11.108;2022-07-06T12:54:49;99004.25;;;24.19;43.98
34586;BME280;20816;50.950;11.108;2022-07-06T12:57:25;99012.09;;;24.60;44.28
34586;BME280;20816;50.950;11.108;2022-07-06T13:02:22;99004.03;;;24.35;44.62
34586;BME280;20816;50.950;11.108;2022-07-06T13:05:11;99015.41;;;24.51;44.07